sensor_id;sensor_type;location;lat;lon;timestamp;temperature;humidity
11647;DHT22;5880;52.342;9.662;2022-07-06T00:01:44;20.10;41.10
11647;DHT22;5880;52.342;9.662;2022-07-06T00:04:10;20.10;41.10
11647;DHT22;5880;52.342;9.662;2022-07-06T00:06:36;20.10;41.10
11647;DHT22;5880;52.342;9.662;2022-07-06T00:09:03;20.10;41.20
11647;DHT22;5880;52.342;9.662;2022-07-06T00:11:29;20.10;41.30
11647;DHT22;5880;52.342;9.662;2022-07-06T00:13:55;20.00;41.20
11647;DHT22;5880;52.342;9.662;2022-07-06T00:16:24;20.00;41.30
11647;DHT22;5880;52.342;9.662;2022-07-06T00:18:51;20.00;41.30
11647;DHT22;5880;52.342;9.662;2022-07-06T00:21:17;19.90;41.40
11647;DHT22;5880;52.342;9.662;2022-07-06T00:23:43;19.90;41.40
11647;DHT22;5880;52.342;9.662;2022-07-06T00:26:09;19.80;41.40
11647;DHT22;5880;52.342;9.662;2022-07-06T00:28:35;19.80;41.50
11647;DHT22;5880;52.342;9.662;2022-07-06T00:31:00;19.80;41.70
11647;DHT22;5880;52.342;9.662;2022-07-06T00:33:26;19.70;41.80
11647;DHT22;5880;52.342;9.662;2022-07-06T00:35:52;19.70;42.00
11647;DHT22;5880;52.342;9.662;2022-07-06T00:38:18;19.60;41.90
11647;DHT22;5880;52.342;9.662;2022-07-06T00:40:43;19.60;42.00
11647;DHT22;5880;52.342;9.662;2022-07-06T00:43:09;19.60;42.10
11647;DHT22;5880;52.342;9.662;2022-07-06T00:45:35;19.50;42.20
11647;DHT22;5880;52.342;9.662;2022-07-06T00:48:01;19.50;42.20
11647;DHT22;5880;52.342;9.662;2022-07-06T00:50:26;19.50;42.20
11647;DHT22;5880;52.342;9.662;2022-07-06T00:52:59;19.40;42.20
11647;DHT22;5880;52.342;9.662;2022-07-06T00:55:32;19.40;42.90
11647;DHT22;5880;52.342;9.662;2022-07-06T00:58:01;19.40;43.00
11647;DHT22;5880;52.342;9.662;2022-07-06T01:00:29;19.40;42.70
11647;DHT22;5880;52.342;9.662;2022-07-06T01:02:55;19.40;42.70
11647;DHT22;5880;52.342;9.662;2022-07-06T01:05:22;19.40;42.80
11647;DHT22;5880;52.342;9.662;2022-07-06T01:07:50;19.40;42.80
11647;DHT22;5880;52.342;9.662;2022-07-06T01:10:18;19.40;42.90
11647;DHT22;5880;52.342;9.662;2022-07-06T01:12:47;19.40;43.00
11647;DHT22;5880;52.342;9.662;2022-07-06T01:15:22;19.40;43.00
11647;DHT22;5880;52.342;9.662;2022-07-06T01:17:51;19.40;43.50
11647;DHT22;5880;52.342;9.662;2022-07-06T01:20:21;19.40;43.10
11647;DHT22;5880;52.342;9.662;2022-07-06T01:22:50;19.40;43.00
11647;DHT22;5880;52.342;9.662;2022-07-06T01:25:18;19.50;43.20
11647;DHT22;5880;52.342;9.662;2022-07-06T01:27:45;19.50;43.10
11647;DHT22;5880;52.342;9.662;2022-07-06T01:30:14;19.50;43.20
11647;DHT22;5880;52.342;9.662;2022-07-06T01:32:42;19.50;44.00
11647;DHT22;5880;52.342;9.662;2022-07-06T01:35:11;19.50;43.10
11647;DHT22;5880;52.342;9.662;2022-07-06T01:37:39;19.50;43.10
11647;DHT22;5880;52.342;9.662;2022-07-06T01:40:07;19.50;42.90
11647;DHT22;5880;52.342;9.662;2022-07-06T01:42:34;19.50;43.00
11647;DHT22;5880;52.342;9.662;2022-07-06T01:45:01;19.50;43.00
11647;DHT22;5880;52.342;9.662;2022-07-06T01:47:29;19.50;43.00
11647;DHT22;5880;52.342;9.662;2022-07-06T01:49:58;19.50;42.90
11647;DHT22;5880;52.342;9.662;2022-07-06T01:52:25;19.50;43.30
11647;DHT22;5880;52.342;9.662;2022-07-06T01:54:51;19.50;43.10
11647;DHT22;5880;52.342;9.662;2022-07-06T01:57:16;19.40;43.10
11647;DHT22;5880;52.342;9.662;2022-07-06T01:59:42;19.50;43.20
11647;DHT22;5880;52.342;9.662;2022-07-06T02:02:08;19.40;43.10
11647;DHT22;5880;52.342;9.662;2022-07-06T02:04:33;19.40;43.20
11647;DHT22;5880;52.342;9.662;2022-07-06T02:06:59;19.40;43.30
11647;DHT22;5880;52.342;9.662;2022-07-06T02:09:25;19.40;43.30
11647;DHT22;5880;52.342;9.662;2022-07-06T02:11:50;19.40;43.20
11647;DHT22;5880;52.342;9.662;2022-07-06T02:14:16;19.40;43.20
11647;DHT22;5880;52.342;9.662;2022-07-06T02:16:41;19.40;43.20
11647;DHT22;5880;52.342;9.662;2022-07-06T02:19:07;19.40;43.30
11647;DHT22;5880;52.342;9.662;2022-07-06T02:21:33;19.40;43.30
11647;DHT22;5880;52.342;9.662;2022-07-06T02:23:58;19.30;43.40
11647;DHT22;5880;52.342;9.662;2022-07-06T02:26:24;19.30;43.50
11647;DHT22;5880;52.342;9.662;2022-07-06T02:28:50;19.30;43.60
11647;DHT22;5880;52.342;9.662;2022-07-06T02:31:15;19.30;43.60
11647;DHT22;5880;52.342;9.662;2022-07-06T02:33:41;19.30;43.60
11647;DHT22;5880;52.342;9.662;2022-07-06T02:36:07;19.30;43.70
11647;DHT22;5880;52.342;9.662;2022-07-06T02:38:33;19.30;43.90
11647;DHT22;5880;52.342;9.662;2022-07-06T02:40:59;19.30;43.90
11647;DHT22;5880;52.342;9.662;2022-07-06T02:43:25;19.30;44.00
11647;DHT22;5880;52.342;9.662;2022-07-06T02:45:50;19.30;44.00
11647;DHT22;5880;52.342;9.662;2022-07-06T02:48:16;19.20;44.00
11647;DHT22;5880;52.342;9.662;2022-07-06T02:50:43;19.20;43.90
11647;DHT22;5880;52.342;9.662;2022-07-06T02:53:08;19.20;44.00
11647;DHT22;5880;52.342;9.662;2022-07-06T02:55:34;19.20;44.10
11647;DHT22;5880;52.342;9.662;2022-07-06T02:58:00;19.20;44.30
11647;DHT22;5880;52.342;9.662;2022-07-06T03:00:25;19.20;44.40
11647;DHT22;5880;52.342;9.662;2022-07-06T03:02:51;19.20;44.60
11647;DHT22;5880;52.342;9.662;2022-07-06T03:05:16;19.10;44.60
11647;DHT22;5880;52.342;9.662;2022-07-06T03:07:42;19.10;44.50
11647;DHT22;5880;52.342;9.662;2022-07-06T03:10:08;19.10;44.60
11647;DHT22;5880;52.342;9.662;2022-07-06T03:12:34;19.10;44.60
11647;DHT22;5880;52.342;9.662;2022-07-06T03:14:59;19.10;44.70
11647;DHT22;5880;52.342;9.662;2022-07-06T03:17:25;19.20;44.70
11647;DHT22;5880;52.342;9.662;2022-07-06T03:19:51;19.00;44.60
11647;DHT22;5880;52.342;9.662;2022-07-06T03:22:17;19.00;44.70
11647;DHT22;5880;52.342;9.662;2022-07-06T03:24:43;19.00;44.80
11647;DHT22;5880;52.342;9.662;2022-07-06T03:27:09;18.90;44.90
11647;DHT22;5880;52.342;9.662;2022-07-06T03:29:34;18.90;44.90
11647;DHT22;5880;52.342;9.662;2022-07-06T03:32:00;18.90;45.10
11647;DHT22;5880;52.342;9.662;2022-07-06T03:34:26;18.90;45.20
11647;DHT22;5880;52.342;9.662;2022-07-06T03:36:51;18.90;45.30
11647;DHT22;5880;52.342;9.662;2022-07-06T03:39:17;18.80;45.30
11647;DHT22;5880;52.342;9.662;2022-07-06T03:41:43;18.80;45.40
11647;DHT22;5880;52.342;9.662;2022-07-06T03:44:08;18.80;45.50
11647;DHT22;5880;52.342;9.662;2022-07-06T03:46:34;18.80;45.60
11647;DHT22;5880;52.342;9.662;2022-07-06T03:49:00;18.90;45.70
11647;DHT22;5880;52.342;9.662;2022-07-06T03:51:25;18.80;45.60
11647;DHT22;5880;52.342;9.662;2022-07-06T03:53:51;18.80;45.70
11647;DHT22;5880;52.342;9.662;2022-07-06T03:56:16;18.80;45.70
11647;DHT22;5880;52.342;9.662;2022-07-06T03:58:56;18.90;45.90
11647;DHT22;5880;52.342;9.662;2022-07-06T04:01:22;18.90;46.10
11647;DHT22;5880;52.342;9.662;2022-07-06T04:03:48;18.90;45.90
11647;DHT22;5880;52.342;9.662;2022-07-06T04:06:14;18.90;45.90
11647;DHT22;5880;52.342;9.662;2022-07-06T04:08:40;18.80;45.90
11647;DHT22;5880;52.342;9.662;2022-07-06T04:11:06;18.90;46.30
11647;DHT22;5880;52.342;9.662;2022-07-06T04:13:32;18.80;46.30
11647;DHT22;5880;52.342;9.662;2022-07-06T04:15:57;18.90;46.50
11647;DHT22;5880;52.342;9.662;2022-07-06T04:18:24;18.90;46.70
11647;DHT22;5880;52.342;9.662;2022-07-06T04:20:49;18.80;46.70
11647;DHT22;5880;52.342;9.662;2022-07-06T04:23:15;18.80;46.60
11647;DHT22;5880;52.342;9.662;2022-07-06T04:25:41;18.80;47.10
11647;DHT22;5880;52.342;9.662;2022-07-06T04:28:07;18.70;47.40
11647;DHT22;5880;52.342;9.662;2022-07-06T04:30:33;18.70;47.20
11647;DHT22;5880;52.342;9.662;2022-07-06T04:32:58;18.60;47.20
11647;DHT22;5880;52.342;9.662;2022-07-06T04:35:24;18.50;47.20
11647;DHT22;5880;52.342;9.662;2022-07-06T04:37:50;18.40;47.40
11647;DHT22;5880;52.342;9.662;2022-07-06T04:40:15;18.30;47.80
11647;DHT22;5880;52.342;9.662;2022-07-06T04:42:43;18.30;48.90
11647;DHT22;5880;52.342;9.662;2022-07-06T04:45:09;18.20;48.70
11647;DHT22;5880;52.342;9.662;2022-07-06T04:47:35;18.20;49.20
11647;DHT22;5880;52.342;9.662;2022-07-06T04:50:01;18.10;49.40
11647;DHT22;5880;52.342;9.662;2022-07-06T04:52:27;18.10;50.00
11647;DHT22;5880;52.342;9.662;2022-07-06T04:54:54;18.00;50.10
11647;DHT22;5880;52.342;9.662;2022-07-06T04:57:20;18.00;50.80
11647;DHT22;5880;52.342;9.662;2022-07-06T04:59:46;18.00;50.30
11647;DHT22;5880;52.342;9.662;2022-07-06T05:02:11;18.00;51.00
11647;DHT22;5880;52.342;9.662;2022-07-06T05:04:37;18.00;51.40
11647;DHT22;5880;52.342;9.662;2022-07-06T05:07:03;18.00;51.60
11647;DHT22;5880;52.342;9.662;2022-07-06T05:09:29;18.00;51.90
11647;DHT22;5880;52.342;9.662;2022-07-06T05:11:55;18.00;51.90
11647;DHT22;5880;52.342;9.662;2022-07-06T05:14:20;18.00;51.90
11647;DHT22;5880;52.342;9.662;2022-07-06T05:16:46;18.00;52.00
11647;DHT22;5880;52.342;9.662;2022-07-06T05:19:12;18.00;51.90
11647;DHT22;5880;52.342;9.662;2022-07-06T05:21:37;18.00;52.00
11647;DHT22;5880;52.342;9.662;2022-07-06T05:24:03;18.10;52.30
11647;DHT22;5880;52.342;9.662;2022-07-06T05:26:29;18.10;52.90
11647;DHT22;5880;52.342;9.662;2022-07-06T05:28:55;18.10;52.80
11647;DHT22;5880;52.342;9.662;2022-07-06T05:31:21;18.10;52.50
11647;DHT22;5880;52.342;9.662;2022-07-06T05:33:46;18.20;53.20
11647;DHT22;5880;52.342;9.662;2022-07-06T05:36:12;18.20;52.60
11647;DHT22;5880;52.342;9.662;2022-07-06T05:38:38;18.30;52.50
11647;DHT22;5880;52.342;9.662;2022-07-06T05:41:04;18.30;52.60
11647;DHT22;5880;52.342;9.662;2022-07-06T05:43:29;18.30;52.40
11647;DHT22;5880;52.342;9.662;2022-07-06T05:45:55;18.30;52.20
11647;DHT22;5880;52.342;9.662;2022-07-06T05:48:21;18.30;52.20
11647;DHT22;5880;52.342;9.662;2022-07-06T05:51:05;18.30;52.50
11647;DHT22;5880;52.342;9.662;2022-07-06T05:53:31;18.40;52.50
11647;DHT22;5880;52.342;9.662;2022-07-06T05:55:56;18.40;52.80
11647;DHT22;5880;52.342;9.662;2022-07-06T05:58:22;18.40;52.70
11647;DHT22;5880;52.342;9.662;2022-07-06T06:00:50;18.50;52.60
11647;DHT22;5880;52.342;9.662;2022-07-06T06:03:17;18.50;52.90
11647;DHT22;5880;52.342;9.662;2022-07-06T06:05:42;18.50;52.90
11647;DHT22;5880;52.342;9.662;2022-07-06T06:08:08;18.60;53.00
11647;DHT22;5880;52.342;9.662;2022-07-06T06:10:34;18.60;52.90
11647;DHT22;5880;52.342;9.662;2022-07-06T06:13:00;18.40;52.90
11647;DHT22;5880;52.342;9.662;2022-07-06T06:15:25;18.70;53.00
11647;DHT22;5880;52.342;9.662;2022-07-06T06:17:51;18.80;52.70
11647;DHT22;5880;52.342;9.662;2022-07-06T06:20:17;18.80;52.50
11647;DHT22;5880;52.342;9.662;2022-07-06T06:22:56;18.80;52.60
11647;DHT22;5880;52.342;9.662;2022-07-06T06:27:58;18.90;53.70
11647;DHT22;5880;52.342;9.662;2022-07-06T06:30:24;18.90;52.90
11647;DHT22;5880;52.342;9.662;2022-07-06T06:32:51;18.90;52.70
11647;DHT22;5880;52.342;9.662;2022-07-06T06:35:17;19.00;52.70
11647;DHT22;5880;52.342;9.662;2022-07-06T06:37:42;19.00;52.90
11647;DHT22;5880;52.342;9.662;2022-07-06T06:40:09;19.10;52.70
11647;DHT22;5880;52.342;9.662;2022-07-06T06:42:38;19.10;52.80
11647;DHT22;5880;52.342;9.662;2022-07-06T06:45:06;19.20;52.90
11647;DHT22;5880;52.342;9.662;2022-07-06T06:47:32;19.20;52.40
11647;DHT22;5880;52.342;9.662;2022-07-06T06:49:57;19.20;52.30
11647;DHT22;5880;52.342;9.662;2022-07-06T06:52:23;19.20;52.10
11647;DHT22;5880;52.342;9.662;2022-07-06T06:54:49;19.30;52.10
11647;DHT22;5880;52.342;9.662;2022-07-06T06:57:14;19.30;52.00
11647;DHT22;5880;52.342;9.662;2022-07-06T06:59:40;19.30;52.00
11647;DHT22;5880;52.342;9.662;2022-07-06T07:02:06;19.40;51.80
11647;DHT22;5880;52.342;9.662;2022-07-06T07:04:31;19.40;51.90
11647;DHT22;5880;52.342;9.662;2022-07-06T07:06:58;19.40;51.90
11647;DHT22;5880;52.342;9.662;2022-07-06T07:09:24;19.40;52.00
11647;DHT22;5880;52.342;9.662;2022-07-06T07:11:50;19.50;51.80
11647;DHT22;5880;52.342;9.662;2022-07-06T07:14:16;19.50;51.70
11647;DHT22;5880;52.342;9.662;2022-07-06T07:16:42;19.50;51.60
11647;DHT22;5880;52.342;9.662;2022-07-06T07:19:08;19.50;51.60
11647;DHT22;5880;52.342;9.662;2022-07-06T07:21:33;19.60;51.60
11647;DHT22;5880;52.342;9.662;2022-07-06T07:23:59;19.60;51.50
11647;DHT22;5880;52.342;9.662;2022-07-06T07:26:24;19.70;51.50
11647;DHT22;5880;52.342;9.662;2022-07-06T07:28:50;19.70;51.30
11647;DHT22;5880;52.342;9.662;2022-07-06T07:31:16;19.70;51.10
11647;DHT22;5880;52.342;9.662;2022-07-06T07:33:41;19.70;51.10
11647;DHT22;5880;52.342;9.662;2022-07-06T07:36:07;19.70;50.90
11647;DHT22;5880;52.342;9.662;2022-07-06T07:38:33;19.80;51.10
11647;DHT22;5880;52.342;9.662;2022-07-06T07:40:59;19.80;51.00
11647;DHT22;5880;52.342;9.662;2022-07-06T07:43:24;19.80;50.90
11647;DHT22;5880;52.342;9.662;2022-07-06T07:45:50;19.80;51.00
11647;DHT22;5880;52.342;9.662;2022-07-06T07:48:15;19.80;50.90
11647;DHT22;5880;52.342;9.662;2022-07-06T07:50:42;19.80;50.60
11647;DHT22;5880;52.342;9.662;2022-07-06T07:53:08;19.80;50.50
11647;DHT22;5880;52.342;9.662;2022-07-06T07:55:33;19.60;50.30
11647;DHT22;5880;52.342;9.662;2022-07-06T07:57:59;19.80;50.60
11647;DHT22;5880;52.342;9.662;2022-07-06T08:00:25;19.80;50.70
11647;DHT22;5880;52.342;9.662;2022-07-06T08:02:51;19.90;50.80
11647;DHT22;5880;52.342;9.662;2022-07-06T08:05:17;20.00;50.50
11647;DHT22;5880;52.342;9.662;2022-07-06T08:07:44;20.00;50.00
11647;DHT22;5880;52.342;9.662;2022-07-06T08:10:10;20.00;50.30
11647;DHT22;5880;52.342;9.662;2022-07-06T08:12:37;20.10;50.00
11647;DHT22;5880;52.342;9.662;2022-07-06T08:15:04;20.10;49.90
11647;DHT22;5880;52.342;9.662;2022-07-06T08:17:31;20.20;49.60
11647;DHT22;5880;52.342;9.662;2022-07-06T08:19:57;20.20;49.20
11647;DHT22;5880;52.342;9.662;2022-07-06T08:22:23;20.20;49.20
11647;DHT22;5880;52.342;9.662;2022-07-06T08:24:48;20.30;49.20
11647;DHT22;5880;52.342;9.662;2022-07-06T08:27:14;20.30;49.10
11647;DHT22;5880;52.342;9.662;2022-07-06T08:29:40;20.50;49.00
11647;DHT22;5880;52.342;9.662;2022-07-06T08:32:06;20.40;48.80
11647;DHT22;5880;52.342;9.662;2022-07-06T08:34:32;20.50;48.80
11647;DHT22;5880;52.342;9.662;2022-07-06T08:36:57;20.60;48.40
11647;DHT22;5880;52.342;9.662;2022-07-06T08:39:23;20.60;48.30
11647;DHT22;5880;52.342;9.662;2022-07-06T08:41:49;20.70;48.00
11647;DHT22;5880;52.342;9.662;2022-07-06T08:44:16;20.80;47.70
11647;DHT22;5880;52.342;9.662;2022-07-06T08:46:42;20.80;47.50
11647;DHT22;5880;52.342;9.662;2022-07-06T08:49:13;20.80;47.50
11647;DHT22;5880;52.342;9.662;2022-07-06T08:51:42;20.90;47.70
11647;DHT22;5880;52.342;9.662;2022-07-06T08:54:08;20.90;47.60
11647;DHT22;5880;52.342;9.662;2022-07-06T08:56:36;20.90;47.50
11647;DHT22;5880;52.342;9.662;2022-07-06T08:59:02;21.10;47.80
11647;DHT22;5880;52.342;9.662;2022-07-06T09:01:27;21.10;47.30
11647;DHT22;5880;52.342;9.662;2022-07-06T09:03:55;21.10;46.90
11647;DHT22;5880;52.342;9.662;2022-07-06T09:06:24;21.20;46.70
11647;DHT22;5880;52.342;9.662;2022-07-06T09:08:55;21.30;46.40
11647;DHT22;5880;52.342;9.662;2022-07-06T09:11:23;21.30;46.40
11647;DHT22;5880;52.342;9.662;2022-07-06T09:13:50;21.40;46.10
11647;DHT22;5880;52.342;9.662;2022-07-06T09:16:17;21.50;46.70
11647;DHT22;5880;52.342;9.662;2022-07-06T09:18:46;21.60;46.20
11647;DHT22;5880;52.342;9.662;2022-07-06T09:21:26;21.70;45.10
11647;DHT22;5880;52.342;9.662;2022-07-06T09:23:56;21.70;44.70
11647;DHT22;5880;52.342;9.662;2022-07-06T09:26:24;21.80;44.80
11647;DHT22;5880;52.342;9.662;2022-07-06T09:28:50;21.80;44.50
11647;DHT22;5880;52.342;9.662;2022-07-06T09:31:16;21.80;44.30
11647;DHT22;5880;52.342;9.662;2022-07-06T09:33:59;21.80;44.50
11647;DHT22;5880;52.342;9.662;2022-07-06T09:36:56;21.80;43.40
11647;DHT22;5880;52.342;9.662;2022-07-06T09:39:24;21.70;42.80
11647;DHT22;5880;52.342;9.662;2022-07-06T09:41:56;21.70;43.80
11647;DHT22;5880;52.342;9.662;2022-07-06T09:44:29;21.70;43.30
11647;DHT22;5880;52.342;9.662;2022-07-06T09:47:03;21.60;43.00
11647;DHT22;5880;52.342;9.662;2022-07-06T09:49:34;21.70;43.10
11647;DHT22;5880;52.342;9.662;2022-07-06T09:52:03;21.60;43.30
11647;DHT22;5880;52.342;9.662;2022-07-06T09:54:30;21.60;43.30
11647;DHT22;5880;52.342;9.662;2022-07-06T09:56:58;21.60;44.00
11647;DHT22;5880;52.342;9.662;2022-07-06T09:59:26;21.60;43.80
11647;DHT22;5880;52.342;9.662;2022-07-06T10:01:56;21.60;43.50
11647;DHT22;5880;52.342;9.662;2022-07-06T10:04:27;21.70;43.30
11647;DHT22;5880;52.342;9.662;2022-07-06T10:06:55;21.70;43.40
11647;DHT22;5880;52.342;9.662;2022-07-06T10:09:23;21.80;43.40
11647;DHT22;5880;52.342;9.662;2022-07-06T10:11:57;21.80;43.40
11647;DHT22;5880;52.342;9.662;2022-07-06T10:14:30;21.90;42.60
11647;DHT22;5880;52.342;9.662;2022-07-06T10:17:02;22.00;42.60
11647;DHT22;5880;52.342;9.662;2022-07-06T10:19:30;22.00;42.50
11647;DHT22;5880;52.342;9.662;2022-07-06T10:22:02;22.10;42.30
11647;DHT22;5880;52.342;9.662;2022-07-06T10:24:30;22.20;41.60
11647;DHT22;5880;52.342;9.662;2022-07-06T10:26:56;22.20;41.20
11647;DHT22;5880;52.342;9.662;2022-07-06T10:29:23;22.20;41.30
11647;DHT22;5880;52.342;9.662;2022-07-06T10:31:49;22.20;40.90
11647;DHT22;5880;52.342;9.662;2022-07-06T10:34:18;22.20;40.50
11647;DHT22;5880;52.342;9.662;2022-07-06T10:36:49;22.20;40.20
11647;DHT22;5880;52.342;9.662;2022-07-06T10:39:32;22.20;40.00
11647;DHT22;5880;52.342;9.662;2022-07-06T10:42:38;22.20;39.60
11647;DHT22;5880;52.342;9.662;2022-07-06T10:45:10;22.20;39.10
11647;DHT22;5880;52.342;9.662;2022-07-06T10:47:37;22.20;40.20
11647;DHT22;5880;52.342;9.662;2022-07-06T10:50:03;22.20;40.50
11647;DHT22;5880;52.342;9.662;2022-07-06T10:52:49;22.20;40.10
11647;DHT22;5880;52.342;9.662;2022-07-06T10:55:35;22.20;39.00
11647;DHT22;5880;52.342;9.662;2022-07-06T10:58:03;22.30;39.40
11647;DHT22;5880;52.342;9.662;2022-07-06T11:00:48;22.30;40.30
11647;DHT22;5880;52.342;9.662;2022-07-06T11:06:20;22.50;39.30
11647;DHT22;5880;52.342;9.662;2022-07-06T11:08:54;22.50;39.30
11647;DHT22;5880;52.342;9.662;2022-07-06T11:11:25;22.50;39.50
11647;DHT22;5880;52.342;9.662;2022-07-06T11:19:27;22.60;39.50
11647;DHT22;5880;52.342;9.662;2022-07-06T11:24:27;22.50;39.20
11647;DHT22;5880;52.342;9.662;2022-07-06T11:26:55;22.50;39.20
11647;DHT22;5880;52.342;9.662;2022-07-06T11:29:24;22.50;39.20
11647;DHT22;5880;52.342;9.662;2022-07-06T11:31:54;22.50;38.80
11647;DHT22;5880;52.342;9.662;2022-07-06T11:34:28;22.50;39.00
11647;DHT22;5880;52.342;9.662;2022-07-06T11:37:03;22.40;38.90
11647;DHT22;5880;52.342;9.662;2022-07-06T11:39:32;22.50;38.70
11647;DHT22;5880;52.342;9.662;2022-07-06T11:42:00;22.40;38.30
11647;DHT22;5880;52.342;9.662;2022-07-06T11:44:27;22.40;38.40
11647;DHT22;5880;52.342;9.662;2022-07-06T11:46:53;22.40;38.30
11647;DHT22;5880;52.342;9.662;2022-07-06T11:49:25;22.40;38.20
11647;DHT22;5880;52.342;9.662;2022-07-06T11:51:51;22.40;38.30
11647;DHT22;5880;52.342;9.662;2022-07-06T11:54:18;22.40;38.10
11647;DHT22;5880;52.342;9.662;2022-07-06T11:56:47;22.40;38.00
11647;DHT22;5880;52.342;9.662;2022-07-06T11:59:14;22.30;37.90
11647;DHT22;5880;52.342;9.662;2022-07-06T12:01:41;22.40;37.70
11647;DHT22;5880;52.342;9.662;2022-07-06T12:04:10;22.30;37.80
11647;DHT22;5880;52.342;9.662;2022-07-06T12:06:36;22.30;37.70
11647;DHT22;5880;52.342;9.662;2022-07-06T12:09:02;22.30;37.90
11647;DHT22;5880;52.342;9.662;2022-07-06T12:11:35;22.20;38.60
11647;DHT22;5880;52.342;9.662;2022-07-06T12:14:12;22.10;37.70
11647;DHT22;5880;52.342;9.662;2022-07-06T12:16:43;22.10;38.20
11647;DHT22;5880;52.342;9.662;2022-07-06T12:19:09;22.10;38.20
11647;DHT22;5880;52.342;9.662;2022-07-06T12:21:45;22.10;38.50
11647;DHT22;5880;52.342;9.662;2022-07-06T12:24:24;22.20;38.50
11647;DHT22;5880;52.342;9.662;2022-07-06T12:26:53;22.30;38.80
11647;DHT22;5880;52.342;9.662;2022-07-06T12:29:20;22.30;38.60
11647;DHT22;5880;52.342;9.662;2022-07-06T12:31:48;22.40;38.40
11647;DHT22;5880;52.342;9.662;2022-07-06T12:34:17;22.50;38.30
11647;DHT22;5880;52.342;9.662;2022-07-06T12:36:58;22.50;38.10
11647;DHT22;5880;52.342;9.662;2022-07-06T12:39:26;22.50;37.80
11647;DHT22;5880;52.342;9.662;2022-07-06T12:42:04;22.60;38.20
11647;DHT22;5880;52.342;9.662;2022-07-06T12:44:30;22.70;38.00
11647;DHT22;5880;52.342;9.662;2022-07-06T12:47:08;22.70;38.20
11647;DHT22;5880;52.342;9.662;2022-07-06T12:49:38;22.70;37.90
11647;DHT22;5880;52.342;9.662;2022-07-06T12:54:43;22.80;38.00
11647;DHT22;5880;52.342;9.662;2022-07-06T12:57:19;22.90;37.50
11647;DHT22;5880;52.342;9.662;2022-07-06T12:59:54;23.00;37.80
11647;DHT22;5880;52.342;9.662;2022-07-06T13:05:07;23.00;37.30
11647;DHT22;5880;52.342;9.662;2022-07-06T13:07:36;23.00;36.90
11647;DHT22;5880;52.342;9.662;2022-07-06T13:10:06;23.10;37.10
11647;DHT22;5880;52.342;9.662;2022-07-06T13:12:34;23.10;37.40
11647;DHT22;5880;52.342;9.662;2022-07-06T13:15:00;23.20;37.60
11647;DHT22;5880;52.342;9.662;2022-07-06T13:17:26;23.30;37.60
11647;DHT22;5880;52.342;9.662;2022-07-06T13:19:52;23.30;37.10
11647;DHT22;5880;52.342;9.662;2022-07-06T13:22:18;23.50;37.50
11647;DHT22;5880;52.342;9.662;2022-07-06T13:24:44;23.60;37.30
11647;DHT22;5880;52.342;9.662;2022-07-06T13:27:11;23.60;37.20
11647;DHT22;5880;52.342;9.662;2022-07-06T13:29:37;23.70;36.90
11647;DHT22;5880;52.342;9.662;2022-07-06T13:32:04;23.80;36.70
11647;DHT22;5880;52.342;9.662;2022-07-06T13:34:31;23.90;36.60
11647;DHT22;5880;52.342;9.662;2022-07-06T13:36:57;23.80;36.70
11647;DHT22;5880;52.342;9.662;2022-07-06T13:39:23;23.90;36.50
11647;DHT22;5880;52.342;9.662;2022-07-06T13:41:49;23.90;36.30
11647;DHT22;5880;52.342;9.662;2022-07-06T13:44:15;24.00;35.90
11647;DHT22;5880;52.342;9.662;2022-07-06T13:46:41;23.90;35.90
11647;DHT22;5880;52.342;9.662;2022-07-06T13:49:08;23.90;35.80
11647;DHT22;5880;52.342;9.662;2022-07-06T13:51:34;23.90;35.80
11647;DHT22;5880;52.342;9.662;2022-07-06T13:53:59;23.90;36.00
11647;DHT22;5880;52.342;9.662;2022-07-06T13:56:26;23.80;35.90
11647;DHT22;5880;52.342;9.662;2022-07-06T13:58:53;23.90;36.40
11647;DHT22;5880;52.342;9.662;2022-07-06T14:01:19;23.90;36.40
11647;DHT22;5880;52.342;9.662;2022-07-06T14:03:45;23.90;36.40
11647;DHT22;5880;52.342;9.662;2022-07-06T14:06:11;24.00;36.40
11647;DHT22;5880;52.342;9.662;2022-07-06T14:08:39;24.20;36.20
11647;DHT22;5880;52.342;9.662;2022-07-06T14:11:06;24.20;35.70
11647;DHT22;5880;52.342;9.662;2022-07-06T14:13:34;24.30;35.60
11647;DHT22;5880;52.342;9.662;2022-07-06T14:16:01;24.30;35.90
11647;DHT22;5880;52.342;9.662;2022-07-06T14:18:27;24.40;35.70
11647;DHT22;5880;52.342;9.662;2022-07-06T14:20:53;24.30;35.20
11647;DHT22;5880;52.342;9.662;2022-07-06T14:23:20;24.40;35.90
11647;DHT22;5880;52.342;9.662;2022-07-06T14:25:47;24.30;35.10
11647;DHT22;5880;52.342;9.662;2022-07-06T14:28:14;24.30;35.20
11647;DHT22;5880;52.342;9.662;2022-07-06T14:30:41;24.30;35.00
11647;DHT22;5880;52.342;9.662;2022-07-06T14:33:08;24.30;35.20
11647;DHT22;5880;52.342;9.662;2022-07-06T14:35:40;24.30;34.90
11647;DHT22;5880;52.342;9.662;2022-07-06T14:38:12;24.20;34.50
11647;DHT22;5880;52.342;9.662;2022-07-06T14:40:39;24.30;34.80
11647;DHT22;5880;52.342;9.662;2022-07-06T14:43:05;24.20;34.90
11647;DHT22;5880;52.342;9.662;2022-07-06T14:45:31;24.10;34.80
11647;DHT22;5880;52.342;9.662;2022-07-06T14:47:57;24.00;35.00
11647;DHT22;5880;52.342;9.662;2022-07-06T14:50:23;24.00;34.70
11647;DHT22;5880;52.342;9.662;2022-07-06T14:52:49;24.00;35.60
11647;DHT22;5880;52.342;9.662;2022-07-06T14:55:17;24.00;34.90
11647;DHT22;5880;52.342;9.662;2022-07-06T14:57:43;23.90;35.10
11647;DHT22;5880;52.342;9.662;2022-07-06T15:00:09;23.90;35.10
11647;DHT22;5880;52.342;9.662;2022-07-06T15:02:35;23.90;35.50
11647;DHT22;5880;52.342;9.662;2022-07-06T15:05:02;24.00;35.20
11647;DHT22;5880;52.342;9.662;2022-07-06T15:07:28;24.00;35.10
11647;DHT22;5880;52.342;9.662;2022-07-06T15:09:55;24.00;35.10
11647;DHT22;5880;52.342;9.662;2022-07-06T15:12:21;24.10;34.90
11647;DHT22;5880;52.342;9.662;2022-07-06T15:14:47;24.00;34.90
11647;DHT22;5880;52.342;9.662;2022-07-06T15:17:12;24.00;34.70
11647;DHT22;5880;52.342;9.662;2022-07-06T15:19:38;24.00;34.70
11647;DHT22;5880;52.342;9.662;2022-07-06T15:22:04;24.00;34.60
11647;DHT22;5880;52.342;9.662;2022-07-06T15:24:30;24.00;34.60
11647;DHT22;5880;52.342;9.662;2022-07-06T15:26:55;24.00;34.40
11647;DHT22;5880;52.342;9.662;2022-07-06T15:29:21;23.90;34.50
11647;DHT22;5880;52.342;9.662;2022-07-06T15:31:47;24.00;34.40
11647;DHT22;5880;52.342;9.662;2022-07-06T15:34:13;23.90;34.60
11647;DHT22;5880;52.342;9.662;2022-07-06T15:36:38;23.90;34.70
11647;DHT22;5880;52.342;9.662;2022-07-06T15:39:04;23.90;34.80
11647;DHT22;5880;52.342;9.662;2022-07-06T15:41:30;23.90;34.80
11647;DHT22;5880;52.342;9.662;2022-07-06T15:43:56;23.90;35.00
11647;DHT22;5880;52.342;9.662;2022-07-06T15:46:23;24.00;34.70
11647;DHT22;5880;52.342;9.662;2022-07-06T15:48:49;24.00;34.40
11647;DHT22;5880;52.342;9.662;2022-07-06T15:51:15;24.00;34.40
11647;DHT22;5880;52.342;9.662;2022-07-06T15:53:41;24.00;34.40
11647;DHT22;5880;52.342;9.662;2022-07-06T15:56:11;24.00;34.30
11647;DHT22;5880;52.342;9.662;2022-07-06T15:58:38;24.00;34.50
11647;DHT22;5880;52.342;9.662;2022-07-06T16:01:03;24.00;34.30
11647;DHT22;5880;52.342;9.662;2022-07-06T16:03:29;24.00;34.50
11647;DHT22;5880;52.342;9.662;2022-07-06T16:05:55;24.00;34.50